East Waterford, Pennsylvania
Current Conditions -  °F | °C
As of 11:15 PM on Tuesday 25 Nov 2014 (Local Time) from KUNV Reporting Station
Clear Clear  
Wind Chill:   Ceiling: Unl
Heat Index:   Visibility: 10mi
Dew Point: -3°   Wind: 3mph
Humidity: 70%   Direction: 290°WNW
Pressure: 30.16"   Gusts: NA
Location:  40.37°N, 77.6°W
Report Text: KUNV 260415Z AUTO 29003KT 10SM CLR 02/M03 A3016 RMK AO2 T00181032
Loading
Personal Weather Stations






























Interactive Weather Map New forecast layout! Learn more

10-Day Weather Forecast

Advertisements
Track Severe Weather on mobile